createdAt,value
2018-06-15T00:00:09.473Z,7.83
2018-06-15T00:02:37.569Z,11.10
2018-06-15T00:05:05.802Z,8.83
2018-06-15T00:07:33.620Z,9.03
2018-06-15T00:10:01.638Z,8.90
2018-06-15T00:12:29.573Z,9.20
2018-06-15T00:14:57.507Z,8.63
2018-06-15T00:17:25.353Z,8.57
2018-06-15T00:19:53.259Z,7.73
2018-06-15T00:22:21.120Z,8.73
2018-06-15T00:24:49.037Z,8.57
2018-06-15T00:27:16.950Z,8.43
2018-06-15T00:29:44.818Z,7.63
2018-06-15T00:32:12.729Z,5.63
2018-06-15T00:34:40.608Z,9.03
2018-06-15T00:37:08.469Z,9.93
2018-06-15T00:39:36.365Z,9.60
2018-06-15T00:42:04.227Z,8.13
2018-06-15T00:44:32.133Z,9.63
2018-06-15T00:47:00.049Z,10.37
2018-06-15T00:49:27.890Z,7.13
2018-06-15T00:51:55.880Z,9.20
2018-06-15T00:54:23.784Z,10.10
2018-06-15T00:57:09.021Z,8.90
2018-06-15T00:59:36.890Z,6.50
2018-06-15T01:02:04.801Z,5.43
2018-06-15T01:04:32.739Z,7.13
2018-06-15T01:07:00.613Z,8.60
2018-06-15T01:09:28.444Z,9.87
2018-06-15T01:11:56.369Z,9.57
2018-06-15T01:14:24.324Z,8.87
2018-06-15T01:16:52.300Z,9.77
2018-06-15T01:19:20.269Z,10.93
2018-06-15T01:21:48.144Z,9.77
2018-06-15T01:24:16.100Z,8.27
2018-06-15T01:26:44.090Z,8.57
2018-06-15T01:29:11.945Z,12.00
2018-06-15T01:31:39.885Z,10.17
2018-06-15T01:34:07.780Z,5.30
2018-06-15T01:36:35.587Z,8.07
2018-06-15T01:39:06.200Z,8.97
2018-06-15T01:41:34.436Z,9.70
2018-06-15T01:44:02.249Z,9.93
2018-06-15T01:46:30.197Z,9.03
2018-06-15T01:48:58.111Z,7.00
2018-06-15T01:51:26.049Z,5.77
2018-06-15T01:53:53.844Z,5.87
2018-06-15T01:56:21.688Z,6.67
2018-06-15T01:58:49.620Z,8.20
2018-06-15T02:01:17.570Z,10.53
2018-06-15T02:03:45.395Z,9.93
2018-06-15T02:06:13.330Z,8.47
2018-06-15T02:08:41.492Z,10.80
2018-06-15T02:11:09.328Z,10.67
2018-06-15T02:13:37.227Z,11.80
2018-06-15T02:16:05.284Z,11.67
2018-06-15T02:18:33.397Z,9.50
2018-06-15T02:21:01.262Z,12.30
2018-06-15T02:23:29.581Z,12.57
2018-06-15T02:25:57.541Z,11.70
2018-06-15T02:28:25.383Z,11.03
2018-06-15T02:30:53.234Z,13.87
2018-06-15T02:33:21.262Z,12.10
2018-06-15T02:35:49.202Z,14.90
2018-06-15T02:38:17.289Z,6.50
2018-06-15T02:40:45.194Z,9.13
2018-06-15T02:43:13.005Z,12.97
2018-06-15T02:45:40.865Z,9.43
2018-06-15T02:48:08.769Z,16.00
2018-06-15T02:50:36.641Z,10.60
2018-06-15T02:53:04.725Z,16.67
2018-06-15T02:55:33.056Z,12.60
2018-06-15T02:58:01.092Z,10.60
2018-06-15T03:00:28.905Z,12.50
2018-06-15T03:02:56.894Z,12.57
2018-06-15T03:05:24.744Z,11.40
2018-06-15T03:07:52.603Z,11.10
2018-06-15T03:10:20.429Z,9.63
2018-06-15T03:12:48.346Z,11.00
2018-06-15T03:15:16.373Z,14.27
2018-06-15T03:17:44.248Z,14.33
2018-06-15T03:20:12.162Z,8.10
2018-06-15T03:22:40.001Z,10.10
2018-06-15T03:25:07.901Z,7.33
2018-06-15T03:27:35.820Z,11.40
2018-06-15T03:30:03.773Z,11.57
2018-06-15T03:32:31.616Z,13.20
2018-06-15T03:34:59.639Z,12.33
2018-06-15T03:37:27.509Z,11.87
2018-06-15T03:39:55.477Z,12.50
2018-06-15T03:42:23.393Z,13.63
2018-06-15T03:44:51.250Z,11.90
2018-06-15T03:47:19.172Z,12.47
2018-06-15T03:49:47.078Z,11.37
2018-06-15T03:52:15.041Z,12.70
2018-06-15T03:54:42.908Z,12.23
2018-06-15T03:57:10.831Z,12.73
2018-06-15T03:59:38.679Z,14.50
2018-06-15T04:02:06.609Z,11.00
2018-06-15T04:04:34.557Z,11.13
2018-06-15T04:07:02.449Z,9.43
2018-06-15T04:09:30.338Z,10.37
2018-06-15T04:11:58.244Z,11.43
2018-06-15T04:14:26.137Z,11.40
2018-06-15T04:16:55.073Z,7.90
2018-06-15T04:19:23.058Z,8.27
2018-06-15T04:21:50.889Z,10.10
2018-06-15T04:24:18.740Z,7.07
2018-06-15T04:26:46.715Z,12.50
2018-06-15T04:29:14.606Z,10.63
2018-06-15T04:31:42.449Z,6.30
2018-06-15T04:34:10.388Z,6.40
2018-06-15T04:36:38.320Z,9.77
2018-06-15T04:39:08.081Z,8.27
2018-06-15T04:41:36.052Z,8.87
2018-06-15T04:44:03.986Z,8.80
2018-06-15T04:46:31.869Z,10.80
2018-06-15T04:48:59.682Z,11.07
2018-06-15T04:51:27.818Z,10.70
2018-06-15T04:53:55.668Z,10.10
2018-06-15T04:56:23.581Z,12.93
2018-06-15T04:58:51.304Z,12.73
2018-06-15T05:01:19.289Z,10.27
2018-06-15T05:03:47.165Z,9.13
2018-06-15T05:06:15.094Z,9.17
2018-06-15T05:08:43.056Z,9.50
2018-06-15T05:11:10.869Z,8.97
2018-06-15T05:13:38.704Z,8.83
2018-06-15T05:16:06.604Z,10.23
2018-06-15T05:18:34.505Z,10.37
2018-06-15T05:21:02.604Z,10.30
2018-06-15T05:23:30.693Z,9.00
2018-06-15T05:25:58.643Z,7.77
2018-06-15T05:28:26.495Z,9.53
2018-06-15T05:30:54.365Z,9.47
2018-06-15T05:33:22.824Z,10.10
2018-06-15T05:35:50.717Z,9.80
2018-06-15T05:38:18.591Z,9.27
2018-06-15T05:40:46.536Z,10.80
2018-06-15T05:43:14.770Z,9.47
2018-06-15T05:45:43.228Z,10.13
2018-06-15T05:48:11.421Z,11.17
2018-06-15T05:50:39.320Z,12.93
2018-06-15T05:53:08.672Z,10.50
2018-06-15T05:55:36.778Z,11.40
2018-06-15T05:58:05.375Z,8.20
2018-06-15T06:00:34.425Z,8.73
2018-06-15T06:03:02.940Z,10.13
2018-06-15T06:05:30.888Z,7.43
2018-06-15T06:07:58.897Z,7.27
2018-06-15T06:10:27.012Z,8.67
2018-06-15T06:12:54.945Z,7.90
2018-06-15T06:15:24.755Z,5.57
2018-06-15T06:17:52.708Z,5.90
2018-06-15T06:20:20.588Z,7.63
2018-06-15T06:22:48.464Z,6.13
2018-06-15T06:25:16.369Z,7.00
2018-06-15T06:27:44.312Z,6.33
2018-06-15T06:30:12.178Z,5.77
2018-06-15T06:32:40.206Z,6.17
2018-06-15T06:35:08.038Z,6.87
2018-06-15T06:37:35.860Z,6.80
2018-06-15T06:40:03.894Z,7.63
2018-06-15T06:42:31.790Z,6.10
2018-06-15T06:44:59.689Z,9.43
2018-06-15T06:47:27.552Z,6.03
2018-06-15T06:49:55.401Z,5.77
2018-06-15T06:52:23.296Z,6.73
2018-06-15T06:54:51.821Z,6.33
2018-06-15T06:57:19.764Z,7.60
2018-06-15T06:59:47.665Z,7.50
2018-06-15T07:02:15.541Z,6.30
2018-06-15T07:04:43.501Z,6.07
2018-06-15T07:07:11.341Z,6.30
2018-06-15T07:09:39.341Z,7.17
2018-06-15T07:12:07.341Z,6.70
2018-06-15T07:14:35.151Z,5.10
2018-06-15T07:17:03.033Z,5.70
2018-06-15T07:19:30.893Z,6.40
2018-06-15T07:21:58.763Z,5.37
2018-06-15T07:24:26.725Z,5.23
2018-06-15T07:26:54.607Z,4.90
2018-06-15T07:29:22.563Z,7.03
2018-06-15T07:31:50.409Z,5.33
2018-06-15T07:34:18.323Z,4.93
2018-06-15T07:36:46.181Z,5.43
2018-06-15T07:39:14.042Z,6.40
2018-06-15T07:41:41.957Z,4.73
2018-06-15T07:44:09.885Z,5.47
2018-06-15T07:46:37.821Z,7.23
2018-06-15T07:49:05.685Z,5.57
2018-06-15T07:51:33.524Z,5.47
2018-06-15T07:54:01.416Z,6.70
2018-06-15T07:56:29.251Z,6.70
2018-06-15T07:58:57.101Z,7.93
2018-06-15T08:01:25.045Z,6.63
2018-06-15T08:04:01.949Z,5.97
2018-06-15T08:06:30.221Z,6.17
2018-06-15T08:08:58.838Z,6.23
2018-06-15T08:11:26.677Z,5.73
2018-06-15T08:13:54.577Z,6.23
2018-06-15T08:16:22.464Z,9.60
2018-06-15T08:18:50.337Z,8.30
2018-06-15T08:21:18.153Z,7.13
2018-06-15T08:23:46.174Z,8.00
2018-06-15T08:26:14.133Z,5.77
2018-06-15T08:28:42.093Z,5.07
2018-06-15T08:31:09.970Z,6.60
2018-06-15T08:33:37.818Z,5.77
2018-06-15T08:36:05.856Z,6.33
2018-06-15T08:38:33.700Z,9.40
2018-06-15T08:41:01.656Z,6.40
2018-06-15T08:43:29.513Z,5.57
2018-06-15T08:45:57.369Z,6.10
2018-06-15T08:48:25.298Z,9.07
2018-06-15T08:50:53.130Z,10.80
2018-06-15T08:53:21.070Z,7.57
2018-06-15T08:55:48.909Z,4.80
2018-06-15T08:58:16.742Z,7.83
2018-06-15T09:00:44.556Z,7.73
2018-06-15T09:03:12.464Z,5.57
2018-06-15T09:05:40.340Z,6.13
2018-06-15T09:08:08.164Z,5.70
2018-06-15T09:10:36.064Z,7.43
2018-06-15T09:13:03.998Z,5.87
2018-06-15T09:15:31.861Z,11.10
2018-06-15T09:17:59.832Z,5.53
2018-06-15T09:20:27.707Z,5.37
2018-06-15T09:22:55.481Z,5.53
2018-06-15T09:25:23.271Z,4.90
2018-06-15T09:27:51.097Z,4.90
2018-06-15T09:30:21.023Z,5.27
2018-06-15T09:32:48.826Z,7.20
2018-06-15T09:35:16.655Z,5.20
2018-06-15T09:37:44.532Z,5.67
2018-06-15T09:40:12.382Z,5.53
2018-06-15T09:42:40.300Z,5.63
2018-06-15T09:45:08.228Z,5.37
2018-06-15T09:47:36.057Z,4.70
2018-06-15T09:50:04.135Z,6.20
2018-06-15T09:52:31.965Z,7.93
2018-06-15T09:54:59.773Z,6.10
2018-06-15T09:57:27.717Z,4.27
2018-06-15T09:59:55.648Z,3.80
2018-06-15T10:02:23.561Z,4.90
2018-06-15T10:04:51.405Z,4.17
2018-06-15T10:07:19.357Z,5.63
2018-06-15T10:09:47.137Z,5.27
2018-06-15T10:12:14.956Z,5.90
2018-06-15T10:14:42.785Z,5.70
2018-06-15T10:17:10.673Z,3.67
2018-06-15T10:19:38.427Z,4.13
2018-06-15T10:22:06.433Z,3.57
2018-06-15T10:24:34.314Z,5.80
2018-06-15T10:27:02.133Z,5.33
2018-06-15T10:29:30.029Z,3.67
2018-06-15T10:31:57.952Z,5.87
2018-06-15T10:34:25.837Z,3.93
2018-06-15T10:36:53.656Z,6.40
2018-06-15T10:39:21.631Z,5.77
2018-06-15T10:41:49.590Z,4.23
2018-06-15T10:44:17.475Z,4.47
2018-06-15T10:46:45.352Z,7.73
2018-06-15T10:49:13.180Z,6.47
2018-06-15T10:51:41.109Z,4.57
2018-06-15T10:54:09.024Z,4.33
2018-06-15T10:56:36.841Z,4.27
2018-06-15T10:59:04.833Z,5.37
2018-06-15T11:01:32.660Z,5.87
2018-06-15T11:04:00.566Z,3.83
2018-06-15T11:06:28.389Z,4.97
2018-06-15T11:08:56.177Z,4.80
2018-06-15T11:11:24.099Z,3.90
2018-06-15T11:13:51.925Z,4.97
2018-06-15T11:16:19.820Z,4.67
2018-06-15T11:18:48.004Z,4.73
2018-06-15T11:21:15.811Z,4.83
2018-06-15T11:23:43.635Z,3.87
2018-06-15T11:26:11.607Z,4.87
2018-06-15T11:28:39.481Z,5.57
2018-06-15T11:31:07.369Z,6.17
2018-06-15T11:33:35.356Z,4.60
2018-06-15T11:36:03.253Z,4.50
2018-06-15T11:38:31.208Z,3.80
2018-06-15T11:40:59.096Z,3.87
2018-06-15T11:43:26.907Z,5.67
2018-06-15T11:45:54.763Z,3.90
2018-06-15T11:48:22.615Z,4.47
2018-06-15T11:50:50.455Z,4.27
2018-06-15T11:53:18.344Z,5.50
2018-06-15T11:55:46.250Z,4.27
2018-06-15T11:58:14.082Z,5.57
2018-06-15T12:00:41.956Z,4.20
2018-06-15T12:03:09.802Z,5.23
2018-06-15T12:05:37.673Z,6.27
2018-06-15T12:08:05.836Z,5.07
2018-06-15T12:10:33.773Z,6.10
2018-06-15T12:13:01.665Z,7.17
2018-06-15T12:15:29.597Z,6.53
2018-06-15T12:18:01.443Z,5.10
2018-06-15T12:20:29.370Z,5.13
2018-06-15T12:22:57.301Z,4.93
2018-06-15T12:25:25.148Z,4.20
2018-06-15T12:27:52.982Z,4.10
2018-06-15T12:30:20.807Z,6.50
2018-06-15T12:32:48.684Z,6.60
2018-06-15T12:35:16.522Z,5.77
2018-06-15T12:37:44.377Z,4.93
2018-06-15T12:40:12.293Z,5.13
2018-06-15T12:42:40.146Z,4.97
2018-06-15T12:45:07.973Z,5.43
2018-06-15T12:47:35.914Z,6.50
2018-06-15T12:50:03.886Z,5.53
2018-06-15T12:52:31.761Z,5.43
2018-06-15T12:54:59.629Z,5.20
2018-06-15T12:57:27.524Z,5.60
2018-06-15T12:59:58.034Z,5.00
2018-06-15T13:02:25.972Z,5.83
2018-06-15T13:04:53.858Z,6.03
2018-06-15T13:07:21.680Z,5.67
2018-06-15T13:09:49.493Z,5.00
2018-06-15T13:12:17.340Z,5.80
2018-06-15T13:14:45.362Z,5.37
2018-06-15T13:17:13.249Z,5.87
2018-06-15T13:19:41.085Z,6.90
2018-06-15T13:22:08.932Z,5.33
2018-06-15T13:24:36.773Z,5.50
2018-06-15T13:27:04.647Z,5.80
2018-06-15T13:29:32.531Z,6.20
2018-06-15T13:32:00.357Z,5.30
2018-06-15T13:34:28.190Z,6.17
2018-06-15T13:36:56.338Z,5.83
2018-06-15T13:39:24.201Z,5.30
2018-06-15T13:41:52.064Z,5.37
2018-06-15T13:44:19.913Z,6.07
2018-06-15T13:46:47.729Z,5.10
2018-06-15T13:49:15.553Z,6.03
2018-06-15T13:51:43.430Z,7.47
2018-06-15T13:54:11.273Z,5.37
2018-06-15T13:56:39.141Z,10.47
2018-06-15T13:59:13.507Z,5.67
2018-06-15T14:01:41.641Z,5.10
2018-06-15T14:04:09.638Z,4.70
2018-06-15T14:06:37.585Z,5.87
2018-06-15T14:09:09.974Z,5.87
2018-06-15T14:11:38.542Z,4.87
2018-06-15T14:14:06.401Z,4.70
2018-06-15T14:16:34.417Z,4.70
2018-06-15T14:19:02.449Z,5.20
2018-06-15T14:21:30.372Z,4.67
2018-06-15T14:23:58.266Z,5.77
2018-06-15T14:26:26.121Z,4.87
2018-06-15T14:28:54.062Z,4.27
2018-06-15T14:31:21.905Z,5.23
2018-06-15T14:33:49.730Z,5.53
2018-06-15T14:36:18.576Z,4.87
2018-06-15T14:38:48.465Z,5.57
2018-06-15T14:41:19.703Z,5.60
2018-06-15T14:43:47.789Z,4.80
2018-06-15T14:46:15.668Z,5.73
2018-06-15T14:48:43.497Z,4.70
2018-06-15T14:51:11.297Z,4.40
2018-06-15T14:53:39.212Z,6.23
2018-06-15T14:56:07.085Z,5.13
2018-06-15T14:58:34.975Z,5.33
2018-06-15T15:01:02.867Z,5.00
2018-06-15T15:03:30.750Z,4.97
2018-06-15T15:06:02.783Z,4.57
2018-06-15T15:08:30.673Z,4.10
2018-06-15T15:10:58.646Z,5.23
2018-06-15T15:13:26.489Z,5.20
2018-06-15T15:15:54.405Z,5.57
2018-06-15T15:18:22.337Z,4.27
2018-06-15T15:20:50.910Z,4.50
2018-06-15T15:23:20.108Z,5.33
2018-06-15T15:25:49.435Z,5.27
2018-06-15T15:28:18.954Z,4.73
2018-06-15T15:30:47.390Z,5.13
2018-06-15T15:33:16.302Z,5.73
2018-06-15T15:35:46.701Z,5.73
2018-06-15T15:38:14.649Z,4.90
2018-06-15T15:40:48.668Z,4.40
2018-06-15T15:43:17.198Z,6.50
2018-06-15T15:45:50.436Z,5.00
2018-06-15T15:48:23.583Z,4.80
2018-06-15T15:50:51.699Z,4.57
2018-06-15T15:53:19.791Z,5.00
2018-06-15T15:55:47.638Z,9.17
2018-06-15T15:58:15.565Z,5.80
2018-06-15T16:00:46.691Z,5.67
2018-06-15T16:03:15.171Z,5.30
2018-06-15T16:05:44.442Z,4.27
2018-06-15T16:08:12.377Z,6.20
2018-06-15T16:10:40.522Z,5.67
2018-06-15T16:13:08.410Z,7.37
2018-06-15T16:15:36.316Z,5.63
2018-06-15T16:18:04.421Z,7.30
2018-06-15T16:20:32.552Z,4.40
2018-06-15T16:23:00.437Z,5.17
2018-06-15T16:25:28.293Z,5.23
2018-06-15T16:27:56.160Z,5.10
2018-06-15T16:30:28.211Z,6.10
2018-06-15T16:32:56.108Z,4.70
2018-06-15T16:35:23.997Z,4.93
2018-06-15T16:37:51.896Z,4.63
2018-06-15T16:40:19.989Z,5.97
2018-06-15T16:42:47.805Z,5.43
2018-06-15T16:45:15.689Z,5.37
2018-06-15T16:47:43.645Z,5.60
2018-06-15T16:50:11.540Z,6.60
2018-06-15T16:52:39.404Z,6.00
2018-06-15T16:55:07.208Z,5.83
2018-06-15T16:57:35.093Z,5.83
2018-06-15T17:00:03.051Z,6.70
2018-06-15T17:02:30.947Z,4.97
2018-06-15T17:04:58.859Z,4.27
2018-06-15T17:07:26.697Z,5.50
2018-06-15T17:09:54.830Z,4.83
2018-06-15T17:12:24.469Z,5.37
2018-06-15T17:14:52.529Z,5.07
2018-06-15T17:17:20.471Z,5.90
2018-06-15T17:19:48.466Z,5.50
2018-06-15T17:22:16.354Z,9.93
2018-06-15T17:24:44.292Z,4.67
2018-06-15T17:27:12.187Z,4.23
2018-06-15T17:29:39.977Z,5.80
2018-06-15T17:32:08.584Z,5.13
2018-06-15T17:34:36.466Z,12.73
2018-06-15T17:37:04.547Z,8.03
2018-06-15T17:39:32.478Z,6.50
2018-06-15T17:42:00.412Z,10.03
2018-06-15T17:44:28.368Z,5.63
2018-06-15T17:46:56.277Z,5.40
2018-06-15T17:49:24.165Z,6.80
2018-06-15T17:51:51.979Z,5.07
2018-06-15T17:54:19.997Z,5.63
2018-06-15T17:56:47.908Z,7.53
2018-06-15T17:59:15.809Z,4.77
2018-06-15T18:01:43.636Z,6.43
2018-06-15T18:04:11.588Z,4.83
2018-06-15T18:06:39.545Z,4.83
2018-06-15T18:09:09.341Z,4.90
2018-06-15T18:11:37.294Z,4.70
2018-06-15T18:14:05.252Z,5.80
2018-06-15T18:16:33.451Z,6.10
2018-06-15T18:19:01.297Z,5.50
2018-06-15T18:21:29.113Z,4.87
2018-06-15T18:23:57.089Z,6.67
2018-06-15T18:26:25.013Z,4.40
2018-06-15T18:28:52.885Z,5.27
2018-06-15T18:31:20.840Z,5.17
2018-06-15T18:33:49.758Z,4.67
2018-06-15T18:36:17.694Z,5.40
2018-06-15T18:38:45.585Z,5.43
2018-06-15T18:41:13.624Z,4.70
2018-06-15T18:43:41.581Z,6.53
2018-06-15T18:46:09.523Z,5.33
2018-06-15T18:48:37.417Z,5.03
2018-06-15T18:51:05.325Z,4.80
2018-06-15T18:53:33.209Z,4.17
2018-06-15T18:56:01.182Z,5.33
2018-06-15T18:58:29.097Z,4.73
2018-06-15T19:00:57.052Z,4.67
2018-06-15T19:03:24.960Z,5.33
2018-06-15T19:05:52.780Z,6.90
2018-06-15T19:08:20.670Z,6.80
2018-06-15T19:10:48.501Z,6.80
2018-06-15T19:13:16.413Z,8.33
2018-06-15T19:15:44.322Z,5.27
2018-06-15T19:18:15.663Z,5.30
2018-06-15T19:20:43.646Z,6.93
2018-06-15T19:23:11.538Z,6.50
2018-06-15T19:25:39.417Z,6.13
2018-06-15T19:28:07.381Z,4.97
2018-06-15T19:30:35.234Z,7.00
2018-06-15T19:33:03.184Z,6.40
2018-06-15T19:35:31.081Z,6.17
2018-06-15T19:37:58.949Z,5.90
2018-06-15T19:40:26.786Z,5.17
2018-06-15T19:42:54.616Z,7.20
2018-06-15T19:45:22.438Z,6.73
2018-06-15T19:47:50.379Z,6.10
2018-06-15T19:50:18.233Z,6.70
2018-06-15T19:52:46.112Z,6.50
2018-06-15T19:55:13.937Z,6.37
2018-06-15T19:57:41.877Z,6.73
2018-06-15T20:00:09.830Z,6.67
2018-06-15T20:02:37.693Z,5.53
2018-06-15T20:05:05.608Z,7.20
2018-06-15T20:07:33.462Z,5.70
2018-06-15T20:10:01.289Z,6.77
2018-06-15T20:12:29.160Z,6.57
2018-06-15T20:14:57.053Z,6.40
2018-06-15T20:17:27.585Z,6.63
2018-06-15T20:19:55.474Z,8.10
2018-06-15T20:22:25.258Z,6.97
2018-06-15T20:24:53.204Z,6.33
2018-06-15T20:27:21.688Z,7.73
2018-06-15T20:29:50.800Z,8.60
2018-06-15T20:32:23.427Z,9.20
2018-06-15T20:34:51.905Z,7.83
2018-06-15T20:37:22.866Z,7.03
2018-06-15T20:39:50.737Z,8.07
2018-06-15T20:42:25.839Z,7.43
2018-06-15T20:44:54.372Z,6.63
2018-06-15T20:47:23.454Z,7.00
2018-06-15T20:49:52.440Z,7.43
2018-06-15T20:52:20.386Z,9.43
2018-06-15T20:54:50.305Z,7.63
2018-06-15T20:57:18.866Z,8.03
2018-06-15T20:59:49.638Z,9.10
2018-06-15T21:02:20.210Z,7.50
2018-06-15T21:04:54.284Z,8.13
2018-06-15T21:07:22.267Z,7.07
2018-06-15T21:09:50.388Z,8.50
2018-06-15T21:12:18.255Z,9.13
2018-06-15T21:14:52.953Z,8.63
2018-06-15T21:17:21.446Z,8.37
2018-06-15T21:19:49.493Z,10.43
2018-06-15T21:22:17.464Z,7.10
2018-06-15T21:24:47.125Z,9.10
2018-06-15T21:27:17.282Z,8.57
2018-06-15T21:29:48.565Z,7.60
2018-06-15T21:32:18.734Z,10.23
2018-06-15T21:34:46.877Z,8.00
2018-06-15T21:37:23.822Z,8.73
2018-06-15T21:39:52.147Z,8.37
2018-06-15T21:42:20.053Z,8.80
2018-06-15T21:44:52.461Z,8.87
2018-06-15T21:47:24.159Z,8.93
2018-06-15T21:49:55.040Z,8.80
2018-06-15T21:52:22.928Z,10.07
2018-06-15T21:54:56.231Z,12.80
2018-06-15T21:57:29.831Z,11.43
2018-06-15T21:59:59.567Z,9.90
2018-06-15T22:02:27.505Z,9.43
2018-06-15T22:04:55.425Z,9.87
2018-06-15T22:07:24.166Z,12.43
2018-06-15T22:09:52.041Z,10.83
2018-06-15T22:12:22.158Z,10.83
2018-06-15T22:14:50.105Z,11.00
2018-06-15T22:17:17.996Z,10.87
2018-06-15T22:19:47.081Z,10.47
2018-06-15T22:22:14.952Z,9.93
2018-06-15T22:24:42.786Z,10.80
2018-06-15T22:27:12.777Z,9.43
2018-06-15T22:29:40.851Z,10.30
2018-06-15T22:32:08.829Z,10.67
2018-06-15T22:34:36.653Z,10.10
2018-06-15T22:37:04.517Z,10.03
2018-06-15T22:39:32.470Z,9.40
2018-06-15T22:42:00.335Z,10.13
2018-06-15T22:44:28.217Z,9.87
2018-06-15T22:46:56.911Z,10.83
2018-06-15T22:49:29.726Z,9.93
2018-06-15T22:52:03.122Z,10.97
2018-06-15T22:54:31.009Z,10.93
2018-06-15T22:56:58.904Z,9.73
2018-06-15T22:59:26.853Z,9.97
2018-06-15T23:01:54.790Z,10.37
2018-06-15T23:04:22.637Z,12.13
2018-06-15T23:06:50.609Z,10.47
2018-06-15T23:09:18.544Z,9.83
2018-06-15T23:11:46.377Z,9.73
2018-06-15T23:14:14.330Z,10.57
2018-06-15T23:16:42.293Z,10.27
2018-06-15T23:19:10.199Z,12.93
2018-06-15T23:21:38.113Z,9.73
2018-06-15T23:24:06.087Z,10.50
2018-06-15T23:26:33.928Z,10.73
2018-06-15T23:29:01.793Z,14.00
2018-06-15T23:31:29.613Z,14.00
2018-06-15T23:33:57.539Z,13.70
2018-06-15T23:36:25.353Z,13.23
2018-06-15T23:38:53.238Z,13.80
2018-06-15T23:41:21.110Z,13.10
2018-06-15T23:43:49.048Z,13.33
2018-06-15T23:46:16.959Z,12.13
2018-06-15T23:48:44.785Z,11.87
2018-06-15T23:51:12.675Z,12.40
2018-06-15T23:53:40.572Z,10.73
2018-06-15T23:56:08.477Z,11.47
2018-06-15T23:58:36.395Z,12.73
